sensor_id;sensor_type;location;lat;lon;timestamp;P1;durP1;ratioP1;P2;durP2;ratioP2
49948;SDS011;35840;45.982;8.890;2023-04-27T00:01:17;4.68;;;1.20;;
49948;SDS011;35840;45.982;8.890;2023-04-27T00:03:43;4.07;;;1.23;;
49948;SDS011;35840;45.982;8.890;2023-04-27T00:06:11;2.17;;;1.20;;
49948;SDS011;35840;45.982;8.890;2023-04-27T00:08:38;1.73;;;1.33;;
49948;SDS011;35840;45.982;8.890;2023-04-27T00:11:04;2.90;;;1.40;;
49948;SDS011;35840;45.982;8.890;2023-04-27T00:13:31;3.88;;;1.52;;
49948;SDS011;35840;45.982;8.890;2023-04-27T00:15:59;2.65;;;1.27;;
49948;SDS011;35840;45.982;8.890;2023-04-27T00:18:29;1.85;;;1.30;;
49948;SDS011;35840;45.982;8.890;2023-04-27T00:20:56;2.38;;;1.42;;
49948;SDS011;35840;45.982;8.890;2023-04-27T00:23:23;3.85;;;1.38;;
49948;SDS011;35840;45.982;8.890;2023-04-27T00:25:49;2.53;;;0.93;;
49948;SDS011;35840;45.982;8.890;2023-04-27T00:28:16;4.20;;;1.02;;
49948;SDS011;35840;45.982;8.890;2023-04-27T00:30:42;1.67;;;1.27;;
49948;SDS011;35840;45.982;8.890;2023-04-27T00:33:10;2.40;;;1.10;;
49948;SDS011;35840;45.982;8.890;2023-04-27T00:35:39;1.67;;;1.00;;
49948;SDS011;35840;45.982;8.890;2023-04-27T00:38:05;2.33;;;0.98;;
49948;SDS011;35840;45.982;8.890;2023-04-27T00:40:32;2.22;;;1.00;;
49948;SDS011;35840;45.982;8.890;2023-04-27T00:42:59;2.22;;;0.98;;
49948;SDS011;35840;45.982;8.890;2023-04-27T00:45:26;3.63;;;1.02;;
49948;SDS011;35840;45.982;8.890;2023-04-27T00:47:53;1.35;;;0.60;;
49948;SDS011;35840;45.982;8.890;2023-04-27T00:50:25;1.63;;;1.08;;
49948;SDS011;35840;45.982;8.890;2023-04-27T00:52:55;1.77;;;0.80;;
49948;SDS011;35840;45.982;8.890;2023-04-27T00:55:22;4.40;;;1.10;;
49948;SDS011;35840;45.982;8.890;2023-04-27T00:57:49;4.10;;;1.15;;
49948;SDS011;35840;45.982;8.890;2023-04-27T01:00:17;2.20;;;0.90;;
49948;SDS011;35840;45.982;8.890;2023-04-27T01:02:43;3.75;;;1.48;;
49948;SDS011;35840;45.982;8.890;2023-04-27T01:05:11;1.10;;;1.00;;
49948;SDS011;35840;45.982;8.890;2023-04-27T01:07:38;1.88;;;1.20;;
49948;SDS011;35840;45.982;8.890;2023-04-27T01:10:06;1.33;;;1.10;;
49948;SDS011;35840;45.982;8.890;2023-04-27T01:12:34;1.33;;;1.15;;
49948;SDS011;35840;45.982;8.890;2023-04-27T01:15:04;4.07;;;1.00;;
49948;SDS011;35840;45.982;8.890;2023-04-27T01:17:31;1.52;;;1.40;;
49948;SDS011;35840;45.982;8.890;2023-04-27T01:19:58;1.75;;;1.52;;
49948;SDS011;35840;45.982;8.890;2023-04-27T01:22:25;1.92;;;1.00;;
49948;SDS011;35840;45.982;8.890;2023-04-27T01:24:52;2.05;;;1.05;;
49948;SDS011;35840;45.982;8.890;2023-04-27T01:27:19;1.15;;;0.90;;
49948;SDS011;35840;45.982;8.890;2023-04-27T01:29:45;1.17;;;1.10;;
49948;SDS011;35840;45.982;8.890;2023-04-27T01:32:12;2.80;;;1.20;;
49948;SDS011;35840;45.982;8.890;2023-04-27T01:34:39;3.58;;;1.30;;
49948;SDS011;35840;45.982;8.890;2023-04-27T01:37:06;1.55;;;1.20;;
49948;SDS011;35840;45.982;8.890;2023-04-27T01:39:32;2.50;;;1.42;;
49948;SDS011;35840;45.982;8.890;2023-04-27T01:41:59;2.35;;;1.52;;
49948;SDS011;35840;45.982;8.890;2023-04-27T01:44:25;1.40;;;1.30;;
49948;SDS011;35840;45.982;8.890;2023-04-27T01:46:52;1.50;;;1.00;;
49948;SDS011;35840;45.982;8.890;2023-04-27T01:49:19;1.30;;;1.13;;
49948;SDS011;35840;45.982;8.890;2023-04-27T01:51:47;1.55;;;1.10;;
49948;SDS011;35840;45.982;8.890;2023-04-27T01:54:14;3.95;;;1.10;;
49948;SDS011;35840;45.982;8.890;2023-04-27T01:56:41;1.67;;;1.00;;
49948;SDS011;35840;45.982;8.890;2023-04-27T01:59:09;4.40;;;1.33;;
49948;SDS011;35840;45.982;8.890;2023-04-27T02:01:35;1.23;;;0.80;;
49948;SDS011;35840;45.982;8.890;2023-04-27T02:04:02;5.78;;;1.27;;
49948;SDS011;35840;45.982;8.890;2023-04-27T02:06:29;2.83;;;1.20;;
49948;SDS011;35840;45.982;8.890;2023-04-27T02:08:56;3.25;;;1.33;;
49948;SDS011;35840;45.982;8.890;2023-04-27T02:11:23;3.63;;;1.15;;
49948;SDS011;35840;45.982;8.890;2023-04-27T02:13:50;1.10;;;1.00;;
49948;SDS011;35840;45.982;8.890;2023-04-27T02:16:16;1.38;;;0.95;;
49948;SDS011;35840;45.982;8.890;2023-04-27T02:18:43;2.33;;;1.10;;
49948;SDS011;35840;45.982;8.890;2023-04-27T02:21:10;5.15;;;1.08;;
49948;SDS011;35840;45.982;8.890;2023-04-27T02:23:36;2.83;;;1.38;;
49948;SDS011;35840;45.982;8.890;2023-04-27T02:26:03;2.17;;;1.35;;
49948;SDS011;35840;45.982;8.890;2023-04-27T02:28:31;2.63;;;1.30;;
49948;SDS011;35840;45.982;8.890;2023-04-27T02:30:59;3.28;;;1.20;;
49948;SDS011;35840;45.982;8.890;2023-04-27T02:33:25;1.30;;;1.00;;
49948;SDS011;35840;45.982;8.890;2023-04-27T02:35:52;1.83;;;0.98;;
49948;SDS011;35840;45.982;8.890;2023-04-27T02:38:19;2.92;;;1.20;;
49948;SDS011;35840;45.982;8.890;2023-04-27T02:40:46;1.65;;;1.10;;
49948;SDS011;35840;45.982;8.890;2023-04-27T02:43:18;3.63;;;1.40;;
49948;SDS011;35840;45.982;8.890;2023-04-27T02:45:45;5.43;;;1.20;;
49948;SDS011;35840;45.982;8.890;2023-04-27T02:48:12;2.80;;;1.10;;
49948;SDS011;35840;45.982;8.890;2023-04-27T02:50:39;1.30;;;1.20;;
49948;SDS011;35840;45.982;8.890;2023-04-27T02:53:07;2.00;;;1.48;;
49948;SDS011;35840;45.982;8.890;2023-04-27T02:55:35;2.83;;;1.08;;
49948;SDS011;35840;45.982;8.890;2023-04-27T02:58:02;3.63;;;1.55;;
49948;SDS011;35840;45.982;8.890;2023-04-27T03:00:29;3.25;;;1.00;;
49948;SDS011;35840;45.982;8.890;2023-04-27T03:02:55;3.78;;;1.35;;
49948;SDS011;35840;45.982;8.890;2023-04-27T03:05:24;2.25;;;1.25;;
49948;SDS011;35840;45.982;8.890;2023-04-27T03:07:53;3.22;;;1.30;;
49948;SDS011;35840;45.982;8.890;2023-04-27T03:10:20;3.40;;;1.65;;
49948;SDS011;35840;45.982;8.890;2023-04-27T03:12:46;1.88;;;1.35;;
49948;SDS011;35840;45.982;8.890;2023-04-27T03:15:13;1.42;;;1.10;;
49948;SDS011;35840;45.982;8.890;2023-04-27T03:17:40;5.65;;;1.30;;
49948;SDS011;35840;45.982;8.890;2023-04-27T03:20:06;2.05;;;1.02;;
49948;SDS011;35840;45.982;8.890;2023-04-27T03:22:35;1.48;;;1.10;;
49948;SDS011;35840;45.982;8.890;2023-04-27T03:25:02;1.98;;;0.98;;
49948;SDS011;35840;45.982;8.890;2023-04-27T03:27:30;1.80;;;1.20;;
49948;SDS011;35840;45.982;8.890;2023-04-27T03:29:56;3.08;;;1.48;;
49948;SDS011;35840;45.982;8.890;2023-04-27T03:32:23;3.05;;;1.33;;
49948;SDS011;35840;45.982;8.890;2023-04-27T03:34:50;3.30;;;1.02;;
49948;SDS011;35840;45.982;8.890;2023-04-27T03:37:17;1.90;;;1.50;;
49948;SDS011;35840;45.982;8.890;2023-04-27T03:39:44;1.67;;;1.10;;
49948;SDS011;35840;45.982;8.890;2023-04-27T03:42:11;1.75;;;1.55;;
49948;SDS011;35840;45.982;8.890;2023-04-27T03:44:38;3.90;;;1.70;;
49948;SDS011;35840;45.982;8.890;2023-04-27T03:47:05;1.42;;;1.10;;
49948;SDS011;35840;45.982;8.890;2023-04-27T03:49:36;4.32;;;1.38;;
49948;SDS011;35840;45.982;8.890;2023-04-27T03:52:04;2.28;;;1.25;;
49948;SDS011;35840;45.982;8.890;2023-04-27T03:54:33;2.38;;;1.67;;
49948;SDS011;35840;45.982;8.890;2023-04-27T03:57:00;1.92;;;1.25;;
49948;SDS011;35840;45.982;8.890;2023-04-27T03:59:28;2.85;;;1.30;;
49948;SDS011;35840;45.982;8.890;2023-04-27T04:01:55;0.98;;;0.95;;
49948;SDS011;35840;45.982;8.890;2023-04-27T04:04:26;1.85;;;1.25;;
49948;SDS011;35840;45.982;8.890;2023-04-27T04:06:53;4.63;;;1.20;;
49948;SDS011;35840;45.982;8.890;2023-04-27T04:09:21;2.60;;;1.20;;
49948;SDS011;35840;45.982;8.890;2023-04-27T04:11:50;4.07;;;1.73;;
49948;SDS011;35840;45.982;8.890;2023-04-27T04:14:18;2.15;;;1.20;;
49948;SDS011;35840;45.982;8.890;2023-04-27T04:16:44;2.38;;;1.25;;
49948;SDS011;35840;45.982;8.890;2023-04-27T04:19:12;2.30;;;1.90;;
49948;SDS011;35840;45.982;8.890;2023-04-27T04:21:40;1.73;;;1.00;;
49948;SDS011;35840;45.982;8.890;2023-04-27T04:24:07;2.55;;;1.17;;
49948;SDS011;35840;45.982;8.890;2023-04-27T04:26:35;2.72;;;1.30;;
49948;SDS011;35840;45.982;8.890;2023-04-27T04:29:04;4.47;;;1.50;;
49948;SDS011;35840;45.982;8.890;2023-04-27T04:31:31;4.32;;;1.60;;
49948;SDS011;35840;45.982;8.890;2023-04-27T04:33:59;2.22;;;1.55;;
49948;SDS011;35840;45.982;8.890;2023-04-27T04:36:27;1.95;;;1.17;;
49948;SDS011;35840;45.982;8.890;2023-04-27T04:38:54;2.03;;;1.50;;
49948;SDS011;35840;45.982;8.890;2023-04-27T04:41:23;2.10;;;1.20;;
49948;SDS011;35840;45.982;8.890;2023-04-27T04:43:50;4.43;;;1.80;;
49948;SDS011;35840;45.982;8.890;2023-04-27T04:46:16;1.52;;;1.42;;
49948;SDS011;35840;45.982;8.890;2023-04-27T04:48:45;2.47;;;1.30;;
49948;SDS011;35840;45.982;8.890;2023-04-27T04:51:12;5.55;;;1.50;;
49948;SDS011;35840;45.982;8.890;2023-04-27T04:53:39;2.03;;;1.52;;
49948;SDS011;35840;45.982;8.890;2023-04-27T04:58:39;1.60;;;1.50;;
49948;SDS011;35840;45.982;8.890;2023-04-27T05:01:06;2.20;;;1.42;;
49948;SDS011;35840;45.982;8.890;2023-04-27T05:03:33;3.30;;;1.98;;
49948;SDS011;35840;45.982;8.890;2023-04-27T05:06:00;2.55;;;1.55;;
49948;SDS011;35840;45.982;8.890;2023-04-27T05:08:26;2.58;;;2.20;;
49948;SDS011;35840;45.982;8.890;2023-04-27T05:10:53;3.55;;;1.90;;
49948;SDS011;35840;45.982;8.890;2023-04-27T05:13:20;2.75;;;1.58;;
49948;SDS011;35840;45.982;8.890;2023-04-27T05:15:47;2.10;;;1.60;;
49948;SDS011;35840;45.982;8.890;2023-04-27T05:18:14;3.72;;;1.45;;
49948;SDS011;35840;45.982;8.890;2023-04-27T05:20:41;5.90;;;1.52;;
49948;SDS011;35840;45.982;8.890;2023-04-27T05:23:07;5.72;;;1.88;;
49948;SDS011;35840;45.982;8.890;2023-04-27T05:25:34;4.30;;;1.73;;
49948;SDS011;35840;45.982;8.890;2023-04-27T05:28:09;2.50;;;1.50;;
49948;SDS011;35840;45.982;8.890;2023-04-27T05:30:36;2.20;;;1.73;;
49948;SDS011;35840;45.982;8.890;2023-04-27T05:33:03;2.30;;;1.60;;
49948;SDS011;35840;45.982;8.890;2023-04-27T05:35:30;3.35;;;1.73;;
49948;SDS011;35840;45.982;8.890;2023-04-27T05:37:58;5.50;;;2.55;;
49948;SDS011;35840;45.982;8.890;2023-04-27T05:40:24;3.88;;;2.40;;
49948;SDS011;35840;45.982;8.890;2023-04-27T05:42:51;4.97;;;2.10;;
49948;SDS011;35840;45.982;8.890;2023-04-27T05:45:18;2.60;;;1.80;;
49948;SDS011;35840;45.982;8.890;2023-04-27T05:47:45;2.78;;;1.90;;
49948;SDS011;35840;45.982;8.890;2023-04-27T05:50:12;2.13;;;1.83;;
49948;SDS011;35840;45.982;8.890;2023-04-27T05:52:39;4.65;;;2.30;;
49948;SDS011;35840;45.982;8.890;2023-04-27T05:55:06;4.03;;;2.17;;
49948;SDS011;35840;45.982;8.890;2023-04-27T05:57:33;5.57;;;2.40;;
49948;SDS011;35840;45.982;8.890;2023-04-27T06:00:00;5.60;;;2.90;;
49948;SDS011;35840;45.982;8.890;2023-04-27T06:02:37;3.85;;;2.28;;
49948;SDS011;35840;45.982;8.890;2023-04-27T06:05:04;4.05;;;2.10;;
49948;SDS011;35840;45.982;8.890;2023-04-27T06:07:32;3.47;;;1.80;;
49948;SDS011;35840;45.982;8.890;2023-04-27T06:09:59;4.43;;;1.90;;
49948;SDS011;35840;45.982;8.890;2023-04-27T06:12:26;4.28;;;2.15;;
49948;SDS011;35840;45.982;8.890;2023-04-27T06:14:53;3.50;;;2.08;;
49948;SDS011;35840;45.982;8.890;2023-04-27T06:17:20;8.77;;;2.67;;
49948;SDS011;35840;45.982;8.890;2023-04-27T06:19:47;4.05;;;2.20;;
49948;SDS011;35840;45.982;8.890;2023-04-27T06:22:13;5.53;;;2.65;;
49948;SDS011;35840;45.982;8.890;2023-04-27T06:24:40;3.45;;;1.98;;
49948;SDS011;35840;45.982;8.890;2023-04-27T06:27:07;2.75;;;1.95;;
49948;SDS011;35840;45.982;8.890;2023-04-27T06:29:34;6.57;;;1.90;;
49948;SDS011;35840;45.982;8.890;2023-04-27T06:32:01;2.10;;;1.63;;
49948;SDS011;35840;45.982;8.890;2023-04-27T06:34:32;2.25;;;1.83;;
49948;SDS011;35840;45.982;8.890;2023-04-27T06:36:59;1.73;;;1.55;;
49948;SDS011;35840;45.982;8.890;2023-04-27T06:39:26;2.13;;;1.67;;
49948;SDS011;35840;45.982;8.890;2023-04-27T06:41:53;3.03;;;1.90;;
49948;SDS011;35840;45.982;8.890;2023-04-27T06:44:19;3.53;;;1.50;;
49948;SDS011;35840;45.982;8.890;2023-04-27T06:46:46;4.28;;;1.95;;
49948;SDS011;35840;45.982;8.890;2023-04-27T06:49:12;3.97;;;1.67;;
49948;SDS011;35840;45.982;8.890;2023-04-27T06:51:39;1.67;;;0.85;;
49948;SDS011;35840;45.982;8.890;2023-04-27T06:54:06;1.95;;;1.33;;
49948;SDS011;35840;45.982;8.890;2023-04-27T06:56:33;3.83;;;1.23;;
49948;SDS011;35840;45.982;8.890;2023-04-27T06:59:00;1.67;;;1.58;;
49948;SDS011;35840;45.982;8.890;2023-04-27T07:01:27;1.40;;;1.10;;
49948;SDS011;35840;45.982;8.890;2023-04-27T07:03:53;4.53;;;1.50;;
49948;SDS011;35840;45.982;8.890;2023-04-27T07:06:20;2.40;;;1.40;;
49948;SDS011;35840;45.982;8.890;2023-04-27T07:08:47;2.13;;;1.15;;
49948;SDS011;35840;45.982;8.890;2023-04-27T07:11:14;2.83;;;1.30;;
49948;SDS011;35840;45.982;8.890;2023-04-27T07:13:42;7.20;;;1.67;;
49948;SDS011;35840;45.982;8.890;2023-04-27T07:16:08;4.05;;;1.20;;
49948;SDS011;35840;45.982;8.890;2023-04-27T07:18:35;3.22;;;1.25;;
49948;SDS011;35840;45.982;8.890;2023-04-27T07:21:02;3.15;;;2.03;;
49948;SDS011;35840;45.982;8.890;2023-04-27T07:23:29;1.88;;;1.27;;
49948;SDS011;35840;45.982;8.890;2023-04-27T07:25:56;1.65;;;1.30;;
49948;SDS011;35840;45.982;8.890;2023-04-27T07:28:23;2.03;;;1.10;;
49948;SDS011;35840;45.982;8.890;2023-04-27T07:30:50;1.88;;;1.27;;
49948;SDS011;35840;45.982;8.890;2023-04-27T07:33:17;6.57;;;1.52;;
49948;SDS011;35840;45.982;8.890;2023-04-27T07:35:43;0.98;;;0.90;;
49948;SDS011;35840;45.982;8.890;2023-04-27T07:38:10;3.15;;;1.30;;
49948;SDS011;35840;45.982;8.890;2023-04-27T07:40:37;3.97;;;1.40;;
49948;SDS011;35840;45.982;8.890;2023-04-27T07:43:05;3.42;;;1.20;;
49948;SDS011;35840;45.982;8.890;2023-04-27T07:45:31;2.80;;;2.00;;
49948;SDS011;35840;45.982;8.890;2023-04-27T07:47:59;4.32;;;1.90;;
49948;SDS011;35840;45.982;8.890;2023-04-27T07:50:27;3.58;;;1.67;;
49948;SDS011;35840;45.982;8.890;2023-04-27T07:52:55;4.20;;;1.50;;
49948;SDS011;35840;45.982;8.890;2023-04-27T07:55:22;2.42;;;1.80;;
49948;SDS011;35840;45.982;8.890;2023-04-27T07:57:54;4.32;;;3.30;;
49948;SDS011;35840;45.982;8.890;2023-04-27T08:00:22;5.72;;;4.00;;
49948;SDS011;35840;45.982;8.890;2023-04-27T08:02:53;5.40;;;3.67;;
49948;SDS011;35840;45.982;8.890;2023-04-27T08:05:20;8.60;;;4.60;;
49948;SDS011;35840;45.982;8.890;2023-04-27T08:07:48;8.25;;;4.35;;
49948;SDS011;35840;45.982;8.890;2023-04-27T08:10:15;7.88;;;4.63;;
49948;SDS011;35840;45.982;8.890;2023-04-27T08:12:42;5.07;;;3.13;;
49948;SDS011;35840;45.982;8.890;2023-04-27T08:15:09;6.95;;;3.60;;
49948;SDS011;35840;45.982;8.890;2023-04-27T08:17:36;5.63;;;3.72;;
49948;SDS011;35840;45.982;8.890;2023-04-27T08:20:06;8.45;;;5.25;;
49948;SDS011;35840;45.982;8.890;2023-04-27T08:22:37;11.32;;;5.35;;
49948;SDS011;35840;45.982;8.890;2023-04-27T08:25:05;10.68;;;5.85;;
49948;SDS011;35840;45.982;8.890;2023-04-27T08:27:35;9.15;;;6.07;;
49948;SDS011;35840;45.982;8.890;2023-04-27T08:30:02;13.75;;;5.78;;
49948;SDS011;35840;45.982;8.890;2023-04-27T08:32:29;10.85;;;6.07;;
49948;SDS011;35840;45.982;8.890;2023-04-27T08:34:56;9.45;;;6.20;;
49948;SDS011;35840;45.982;8.890;2023-04-27T08:37:23;8.32;;;5.55;;
49948;SDS011;35840;45.982;8.890;2023-04-27T08:39:49;8.75;;;5.20;;
49948;SDS011;35840;45.982;8.890;2023-04-27T08:42:16;8.68;;;5.50;;
49948;SDS011;35840;45.982;8.890;2023-04-27T08:44:43;10.32;;;5.80;;
49948;SDS011;35840;45.982;8.890;2023-04-27T08:47:10;12.90;;;7.10;;
49948;SDS011;35840;45.982;8.890;2023-04-27T08:49:37;10.20;;;6.15;;
49948;SDS011;35840;45.982;8.890;2023-04-27T08:52:09;11.30;;;6.03;;
49948;SDS011;35840;45.982;8.890;2023-04-27T08:54:37;13.82;;;6.25;;
49948;SDS011;35840;45.982;8.890;2023-04-27T08:57:11;8.93;;;6.18;;
49948;SDS011;35840;45.982;8.890;2023-04-27T08:59:39;10.10;;;5.82;;
49948;SDS011;35840;45.982;8.890;2023-04-27T09:02:06;11.02;;;6.07;;
49948;SDS011;35840;45.982;8.890;2023-04-27T09:04:44;11.60;;;5.50;;
49948;SDS011;35840;45.982;8.890;2023-04-27T09:07:12;10.50;;;6.38;;
49948;SDS011;35840;45.982;8.890;2023-04-27T09:09:43;9.18;;;5.85;;
49948;SDS011;35840;45.982;8.890;2023-04-27T09:12:13;11.48;;;6.22;;
49948;SDS011;35840;45.982;8.890;2023-04-27T09:14:41;9.25;;;5.82;;
49948;SDS011;35840;45.982;8.890;2023-04-27T09:17:09;8.10;;;5.88;;
49948;SDS011;35840;45.982;8.890;2023-04-27T09:19:36;8.38;;;5.68;;
49948;SDS011;35840;45.982;8.890;2023-04-27T09:24:30;9.85;;;6.38;;
49948;SDS011;35840;45.982;8.890;2023-04-27T09:26:57;11.38;;;5.53;;
49948;SDS011;35840;45.982;8.890;2023-04-27T09:29:35;9.50;;;5.70;;
49948;SDS011;35840;45.982;8.890;2023-04-27T09:32:16;10.82;;;6.20;;
49948;SDS011;35840;45.982;8.890;2023-04-27T09:34:44;9.70;;;5.90;;
49948;SDS011;35840;45.982;8.890;2023-04-27T09:37:11;13.43;;;6.20;;
49948;SDS011;35840;45.982;8.890;2023-04-27T09:39:38;10.90;;;6.13;;
49948;SDS011;35840;45.982;8.890;2023-04-27T09:42:05;10.07;;;6.65;;
49948;SDS011;35840;45.982;8.890;2023-04-27T09:44:33;9.00;;;5.72;;
49948;SDS011;35840;45.982;8.890;2023-04-27T09:47:00;8.35;;;5.75;;
49948;SDS011;35840;45.982;8.890;2023-04-27T09:49:27;9.85;;;5.68;;
49948;SDS011;35840;45.982;8.890;2023-04-27T09:51:55;10.95;;;6.55;;
49948;SDS011;35840;45.982;8.890;2023-04-27T09:54:25;13.38;;;6.75;;
49948;SDS011;35840;45.982;8.890;2023-04-27T10:02:52;8.77;;;5.78;;
49948;SDS011;35840;45.982;8.890;2023-04-27T10:08:33;6.82;;;4.68;;
49948;SDS011;35840;45.982;8.890;2023-04-27T10:11:11;11.95;;;5.97;;
49948;SDS011;35840;45.982;8.890;2023-04-27T10:13:51;7.45;;;4.72;;
49948;SDS011;35840;45.982;8.890;2023-04-27T10:16:20;9.00;;;5.97;;
49948;SDS011;35840;45.982;8.890;2023-04-27T10:18:50;9.45;;;5.88;;
49948;SDS011;35840;45.982;8.890;2023-04-27T10:21:19;10.00;;;6.50;;
49948;SDS011;35840;45.982;8.890;2023-04-27T10:23:47;7.80;;;5.05;;
49948;SDS011;35840;45.982;8.890;2023-04-27T10:26:20;7.80;;;4.75;;
49948;SDS011;35840;45.982;8.890;2023-04-27T10:28:57;6.95;;;4.55;;
49948;SDS011;35840;45.982;8.890;2023-04-27T10:31:31;8.05;;;5.03;;
49948;SDS011;35840;45.982;8.890;2023-04-27T10:34:06;8.13;;;4.78;;
49948;SDS011;35840;45.982;8.890;2023-04-27T10:36:37;13.65;;;5.88;;
49948;SDS011;35840;45.982;8.890;2023-04-27T10:39:17;10.25;;;6.25;;
49948;SDS011;35840;45.982;8.890;2023-04-27T10:41:51;8.00;;;5.28;;
49948;SDS011;35840;45.982;8.890;2023-04-27T10:44:24;6.13;;;4.70;;
49948;SDS011;35840;45.982;8.890;2023-04-27T10:46:55;9.70;;;4.70;;
49948;SDS011;35840;45.982;8.890;2023-04-27T10:49:23;7.82;;;5.20;;
49948;SDS011;35840;45.982;8.890;2023-04-27T10:51:50;7.47;;;4.85;;
49948;SDS011;35840;45.982;8.890;2023-04-27T10:54:17;6.60;;;4.28;;
49948;SDS011;35840;45.982;8.890;2023-04-27T10:56:44;8.27;;;5.57;;
49948;SDS011;35840;45.982;8.890;2023-04-27T10:59:10;6.53;;;4.80;;
49948;SDS011;35840;45.982;8.890;2023-04-27T11:01:38;6.72;;;4.35;;
49948;SDS011;35840;45.982;8.890;2023-04-27T11:04:05;9.15;;;5.00;;
49948;SDS011;35840;45.982;8.890;2023-04-27T11:06:39;7.65;;;4.40;;
49948;SDS011;35840;45.982;8.890;2023-04-27T11:09:07;9.48;;;4.47;;
49948;SDS011;35840;45.982;8.890;2023-04-27T11:11:35;6.10;;;4.13;;
49948;SDS011;35840;45.982;8.890;2023-04-27T11:14:02;7.57;;;4.38;;
49948;SDS011;35840;45.982;8.890;2023-04-27T11:16:32;7.45;;;4.40;;
49948;SDS011;35840;45.982;8.890;2023-04-27T11:19:04;8.18;;;4.97;;
49948;SDS011;35840;45.982;8.890;2023-04-27T11:21:32;9.45;;;4.60;;
49948;SDS011;35840;45.982;8.890;2023-04-27T11:24:02;10.40;;;4.35;;
49948;SDS011;35840;45.982;8.890;2023-04-27T11:26:30;7.53;;;4.55;;
49948;SDS011;35840;45.982;8.890;2023-04-27T11:29:07;8.25;;;4.05;;
49948;SDS011;35840;45.982;8.890;2023-04-27T11:31:43;5.00;;;3.55;;
49948;SDS011;35840;45.982;8.890;2023-04-27T11:34:16;5.78;;;4.20;;
49948;SDS011;35840;45.982;8.890;2023-04-27T11:36:54;8.95;;;3.88;;
49948;SDS011;35840;45.982;8.890;2023-04-27T11:39:43;8.18;;;4.50;;
49948;SDS011;35840;45.982;8.890;2023-04-27T11:42:13;9.32;;;4.40;;
49948;SDS011;35840;45.982;8.890;2023-04-27T11:44:55;7.35;;;4.20;;
49948;SDS011;35840;45.982;8.890;2023-04-27T11:47:27;5.88;;;3.95;;
49948;SDS011;35840;45.982;8.890;2023-04-27T11:49:56;8.77;;;5.22;;
49948;SDS011;35840;45.982;8.890;2023-04-27T11:52:28;5.93;;;3.83;;
49948;SDS011;35840;45.982;8.890;2023-04-27T11:54:59;6.60;;;4.55;;
49948;SDS011;35840;45.982;8.890;2023-04-27T11:57:27;6.70;;;3.70;;
49948;SDS011;35840;45.982;8.890;2023-04-27T11:59:57;7.55;;;4.60;;
49948;SDS011;35840;45.982;8.890;2023-04-27T12:02:26;6.90;;;3.80;;
49948;SDS011;35840;45.982;8.890;2023-04-27T12:04:54;7.30;;;4.05;;
49948;SDS011;35840;45.982;8.890;2023-04-27T12:07:21;6.75;;;4.75;;
49948;SDS011;35840;45.982;8.890;2023-04-27T12:09:48;9.40;;;4.65;;
49948;SDS011;35840;45.982;8.890;2023-04-27T12:12:15;6.28;;;4.07;;
49948;SDS011;35840;45.982;8.890;2023-04-27T12:14:48;6.18;;;4.15;;
49948;SDS011;35840;45.982;8.890;2023-04-27T12:17:15;4.78;;;3.88;;
49948;SDS011;35840;45.982;8.890;2023-04-27T12:19:42;5.97;;;4.18;;
49948;SDS011;35840;45.982;8.890;2023-04-27T12:22:09;8.52;;;4.07;;
49948;SDS011;35840;45.982;8.890;2023-04-27T12:24:36;7.95;;;3.85;;
49948;SDS011;35840;45.982;8.890;2023-04-27T12:27:03;6.18;;;4.22;;
49948;SDS011;35840;45.982;8.890;2023-04-27T12:29:30;5.25;;;3.97;;
49948;SDS011;35840;45.982;8.890;2023-04-27T12:31:57;8.27;;;4.28;;
49948;SDS011;35840;45.982;8.890;2023-04-27T12:34:25;5.90;;;4.13;;
49948;SDS011;35840;45.982;8.890;2023-04-27T12:36:53;7.85;;;4.32;;
49948;SDS011;35840;45.982;8.890;2023-04-27T12:39:21;5.65;;;3.92;;
49948;SDS011;35840;45.982;8.890;2023-04-27T12:41:52;10.82;;;4.28;;
49948;SDS011;35840;45.982;8.890;2023-04-27T12:44:19;5.75;;;4.20;;
49948;SDS011;35840;45.982;8.890;2023-04-27T12:46:47;7.50;;;3.85;;
49948;SDS011;35840;45.982;8.890;2023-04-27T12:49:15;9.20;;;4.53;;
49948;SDS011;35840;45.982;8.890;2023-04-27T12:51:42;7.88;;;3.95;;
49948;SDS011;35840;45.982;8.890;2023-04-27T12:54:10;7.55;;;4.47;;
49948;SDS011;35840;45.982;8.890;2023-04-27T12:56:38;8.13;;;4.10;;
49948;SDS011;35840;45.982;8.890;2023-04-27T12:59:05;8.15;;;4.63;;
49948;SDS011;35840;45.982;8.890;2023-04-27T13:01:32;9.50;;;5.53;;
49948;SDS011;35840;45.982;8.890;2023-04-27T13:04:00;7.85;;;4.40;;
49948;SDS011;35840;45.982;8.890;2023-04-27T13:06:28;6.18;;;3.92;;
49948;SDS011;35840;45.982;8.890;2023-04-27T13:08:56;8.15;;;4.40;;
49948;SDS011;35840;45.982;8.890;2023-04-27T13:11:24;8.35;;;4.25;;
49948;SDS011;35840;45.982;8.890;2023-04-27T13:13:51;5.50;;;4.13;;
49948;SDS011;35840;45.982;8.890;2023-04-27T13:16:18;7.43;;;4.63;;
49948;SDS011;35840;45.982;8.890;2023-04-27T13:18:47;7.28;;;4.05;;
49948;SDS011;35840;45.982;8.890;2023-04-27T13:21:17;9.43;;;4.78;;
49948;SDS011;35840;45.982;8.890;2023-04-27T13:23:44;7.57;;;4.25;;
49948;SDS011;35840;45.982;8.890;2023-04-27T13:26:13;7.05;;;4.95;;
49948;SDS011;35840;45.982;8.890;2023-04-27T13:28:41;6.93;;;4.40;;
49948;SDS011;35840;45.982;8.890;2023-04-27T13:31:08;8.45;;;4.57;;
49948;SDS011;35840;45.982;8.890;2023-04-27T13:33:39;8.38;;;5.25;;
49948;SDS011;35840;45.982;8.890;2023-04-27T13:36:07;7.03;;;4.70;;
49948;SDS011;35840;45.982;8.890;2023-04-27T13:38:35;6.13;;;4.35;;
49948;SDS011;35840;45.982;8.890;2023-04-27T13:41:02;6.05;;;4.50;;
49948;SDS011;35840;45.982;8.890;2023-04-27T13:43:29;6.10;;;4.65;;
49948;SDS011;35840;45.982;8.890;2023-04-27T13:45:57;7.55;;;5.18;;
49948;SDS011;35840;45.982;8.890;2023-04-27T13:48:26;8.68;;;5.40;;
49948;SDS011;35840;45.982;8.890;2023-04-27T13:50:54;10.52;;;5.53;;
49948;SDS011;35840;45.982;8.890;2023-04-27T13:53:21;6.32;;;4.00;;
49948;SDS011;35840;45.982;8.890;2023-04-27T13:55:52;6.65;;;4.32;;
49948;SDS011;35840;45.982;8.890;2023-04-27T13:58:19;7.03;;;4.20;;
49948;SDS011;35840;45.982;8.890;2023-04-27T14:00:47;5.85;;;4.00;;
49948;SDS011;35840;45.982;8.890;2023-04-27T14:03:14;9.93;;;3.97;;
49948;SDS011;35840;45.982;8.890;2023-04-27T14:05:42;3.97;;;3.42;;
49948;SDS011;35840;45.982;8.890;2023-04-27T14:08:10;8.60;;;3.53;;
49948;SDS011;35840;45.982;8.890;2023-04-27T14:10:37;5.20;;;3.90;;
49948;SDS011;35840;45.982;8.890;2023-04-27T14:13:04;8.98;;;4.10;;
49948;SDS011;35840;45.982;8.890;2023-04-27T14:15:31;7.57;;;4.25;;
49948;SDS011;35840;45.982;8.890;2023-04-27T14:18:03;5.72;;;4.22;;
49948;SDS011;35840;45.982;8.890;2023-04-27T14:20:31;6.72;;;4.10;;
49948;SDS011;35840;45.982;8.890;2023-04-27T14:22:58;9.52;;;3.38;;
49948;SDS011;35840;45.982;8.890;2023-04-27T14:25:34;6.75;;;3.63;;
49948;SDS011;35840;45.982;8.890;2023-04-27T14:28:02;5.88;;;3.45;;
49948;SDS011;35840;45.982;8.890;2023-04-27T14:30:35;5.07;;;2.95;;
49948;SDS011;35840;45.982;8.890;2023-04-27T14:33:02;7.47;;;3.45;;
49948;SDS011;35840;45.982;8.890;2023-04-27T14:35:29;5.18;;;3.40;;
49948;SDS011;35840;45.982;8.890;2023-04-27T14:37:56;6.75;;;4.15;;
49948;SDS011;35840;45.982;8.890;2023-04-27T14:40:28;5.15;;;3.33;;
49948;SDS011;35840;45.982;8.890;2023-04-27T14:42:57;4.80;;;3.55;;
49948;SDS011;35840;45.982;8.890;2023-04-27T14:45:25;4.45;;;3.63;;
49948;SDS011;35840;45.982;8.890;2023-04-27T14:48:05;7.10;;;3.85;;
49948;SDS011;35840;45.982;8.890;2023-04-27T14:50:32;5.32;;;3.13;;
49948;SDS011;35840;45.982;8.890;2023-04-27T14:52:58;4.43;;;2.50;;
49948;SDS011;35840;45.982;8.890;2023-04-27T14:55:25;5.95;;;3.03;;
49948;SDS011;35840;45.982;8.890;2023-04-27T14:57:52;5.57;;;2.83;;
49948;SDS011;35840;45.982;8.890;2023-04-27T15:00:19;5.30;;;3.50;;
49948;SDS011;35840;45.982;8.890;2023-04-27T15:02:45;5.03;;;3.28;;
49948;SDS011;35840;45.982;8.890;2023-04-27T15:05:12;4.05;;;3.08;;